Time;durP1;ratioP1;P1;durP2;ratioP2;P2;SDS_P1;SDS_P2;PMS_P1;PMS_P2;Temp;Humidity;BMP_temperature;BMP_pressure;BME280_temperature;BME280_humidity;BME280_pressure;Samples;Min_cycle;Max_cycle;Signal;HPM_P1;HPM_P2
2021/08/26 00:00:17;;;;;;;11.13;7.47;;;;;;;11.38;100.00;95858.97;1023815;29;20140;-52
2021/08/26 00:00:59;;;;;;;12.40;7.82;;;;;;;11.43;100.00;95859.47;1028748;28;20476;-51
2021/08/26 00:09:10;;;;;;;12.23;7.82;;;;;;;11.40;100.00;95845.75;1037672;28;20125;-53
2021/08/26 00:09:40;;;;;;;11.07;7.03;;;;;;;11.37;100.00;95843.34;1040141;28;20127;-53
2021/08/26 00:10:13;;;;;;;12.40;8.15;;;;;;;11.37;100.00;95841.53;1040064;28;20040;-52
2021/08/26 00:10:44;;;;;;;12.30;7.95;;;;;;;11.39;100.00;95839.66;1036160;28;20026;-53
2021/08/26 00:11:21;;;;;;;12.38;8.45;;;;;;;11.36;100.00;95842.50;1035720;28;20018;-52
2021/08/26 00:11:54;;;;;;;12.27;7.07;;;;;;;11.32;100.00;95846.31;1035968;28;20049;-52
2021/08/26 00:12:25;;;;;;;13.18;8.35;;;;;;;11.28;100.00;95837.03;1037228;28;20010;-53
2021/08/26 00:12:56;;;;;;;11.10;7.63;;;;;;;11.24;100.00;95838.16;1039716;28;20017;-53
2021/08/26 00:13:26;;;;;;;12.20;7.68;;;;;;;11.22;100.00;95832.22;1037873;28;20503;-52
2021/08/26 00:13:57;;;;;;;10.55;7.45;;;;;;;11.22;100.00;95830.44;1031715;28;20057;-53
2021/08/26 00:14:28;;;;;;;9.90;7.30;;;;;;;11.22;100.00;95834.84;1031736;28;20046;-52
2021/08/26 00:14:59;;;;;;;16.95;7.78;;;;;;;11.19;100.00;95837.69;1032000;28;20023;-53
2021/08/26 00:15:30;;;;;;;12.10;7.78;;;;;;;11.17;100.00;95835.19;1035708;28;20406;-53
2021/08/26 00:16:01;;;;;;;11.10;7.50;;;;;;;11.16;100.00;95832.69;1032071;28;20050;-53
2021/08/26 00:16:32;;;;;;;13.90;8.20;;;;;;;11.14;100.00;95831.97;1027708;28;20035;-53
2021/08/26 00:17:03;;;;;;;10.43;7.85;;;;;;;11.16;100.00;95832.69;1027657;28;20023;-52
2021/08/26 00:17:33;;;;;;;12.05;8.27;;;;;;;11.15;100.00;95838.84;1031747;28;20010;-53
2021/08/26 00:18:04;;;;;;;10.55;7.72;;;;;;;11.19;100.00;95835.91;1031758;28;20097;-53
2021/08/26 00:18:35;;;;;;;14.15;8.05;;;;;;;11.21;100.00;95833.19;1032503;28;20019;-53
2021/08/26 00:19:06;;;;;;;13.25;8.15;;;;;;;11.24;100.00;95832.94;1035901;28;20022;-52
2021/08/26 00:19:38;;;;;;;11.15;7.47;;;;;;;11.20;100.00;95827.06;1035816;28;20084;-53
2021/08/26 00:20:09;;;;;;;11.05;7.38;;;;;;;11.16;100.00;95832.69;1035827;28;20009;-53
2021/08/26 00:20:40;;;;;;;13.23;7.90;;;;;;;11.17;100.00;95836.97;1036481;28;20028;-53
2021/08/26 00:21:12;;;;;;;11.65;7.60;;;;;;;11.14;100.00;95837.19;1041107;28;20421;-52
2021/08/26 00:21:42;;;;;;;11.95;7.57;;;;;;;11.14;100.00;95837.19;1043447;28;20013;-53
2021/08/26 00:22:17;;;;;;;10.90;7.72;;;;;;;11.14;100.00;95837.19;1039896;28;20013;-53
2021/08/26 00:22:47;;;;;;;13.07;8.18;;;;;;;11.08;100.00;95831.44;1031649;28;20026;-52
2021/08/26 00:23:19;;;;;;;13.73;8.20;;;;;;;11.03;100.00;95830.13;1027827;28;20046;-52
2021/08/26 00:23:50;;;;;;;12.30;8.07;;;;;;;11.06;100.00;95828.13;1028704;28;20064;-53
2021/08/26 00:24:20;;;;;;;11.20;8.02;;;;;;;11.12;100.00;95826.81;1028872;28;20041;-53
2021/08/26 00:24:51;;;;;;;11.32;7.80;;;;;;;11.07;100.00;95828.94;1027654;28;20400;-53
2021/08/26 00:25:22;;;;;;;10.48;7.50;;;;;;;10.84;100.00;95797.41;1023680;29;20049;-53
2021/08/26 00:25:52;;;;;;;12.40;8.18;;;;;;;11.06;100.00;95833.34;1023617;29;20019;-53
2021/08/26 00:26:23;;;;;;;13.15;8.05;;;;;;;11.07;100.00;95828.94;1027625;28;20085;-53
2021/08/26 00:26:54;;;;;;;11.45;8.23;;;;;;;11.07;100.00;95834.19;1023666;28;20511;-53
2021/08/26 00:27:24;;;;;;;13.20;8.57;;;;;;;11.04;100.00;95835.25;1031881;28;20014;-53
2021/08/26 00:27:55;;;;;;;12.15;7.78;;;;;;;10.99;100.00;95831.31;1031670;28;20050;-52
2021/08/26 00:28:25;;;;;;;12.77;8.20;;;;;;;10.96;100.00;95832.38;1028073;28;20031;-52
2021/08/26 00:28:56;;;;;;;14.05;8.32;;;;;;;10.94;100.00;95834.25;1027838;28;20121;-52
2021/08/26 00:29:26;;;;;;;10.88;8.23;;;;;;;10.90;100.00;95838.06;1027660;28;20021;-53
2021/08/26 00:29:57;;;;;;;12.45;8.45;;;;;;;10.88;100.00;95837.34;1027907;28;20031;-52
2021/08/26 00:30:27;;;;;;;12.02;8.65;;;;;;;10.86;100.00;95834.00;1031884;28;20022;-52
2021/08/26 00:30:58;;;;;;;12.18;8.27;;;;;;;10.87;100.00;95839.13;1035825;28;20105;-53
2021/08/26 00:31:29;;;;;;;13.55;8.13;;;;;;;10.84;100.00;95836.72;1035880;28;20371;-52
2021/08/26 00:31:59;;;;;;;13.00;8.35;;;;;;;10.84;100.00;95834.09;1035544;28;20125;-52
2021/08/26 00:32:30;;;;;;;14.90;8.43;;;;;;;10.85;100.00;95845.44;1031602;28;20007;-52
2021/08/26 00:33:01;;;;;;;12.00;8.30;;;;;;;10.82;100.00;95838.63;1031733;28;20029;-53
2021/08/26 00:33:31;;;;;;;12.85;8.40;;;;;;;10.82;100.00;95835.16;1023784;28;20580;-52
2021/08/26 00:34:02;;;;;;;12.60;8.65;;;;;;;10.80;100.00;95839.69;1023529;29;20015;-52
2021/08/26 00:34:32;;;;;;;14.02;8.65;;;;;;;10.78;100.00;95839.78;1024033;28;20421;-53
2021/08/26 00:35:03;;;;;;;11.13;8.45;;;;;;;10.78;100.00;95834.56;1023517;29;20118;-52
2021/08/26 00:35:34;;;;;;;14.07;9.05;;;;;;;10.77;100.00;95843.34;1027628;28;20022;-53
2021/08/26 00:36:04;;;;;;;15.30;8.60;;;;;;;10.78;100.00;95836.34;1031574;28;20503;-52
2021/08/26 00:36:35;;;;;;;13.73;8.82;;;;;;;10.79;100.00;95840.63;1031751;28;20113;-53
2021/08/26 00:37:06;;;;;;;13.50;8.32;;;;;;;10.76;100.00;95839.06;1027580;28;20027;-51
2021/08/26 00:37:36;;;;;;;14.07;7.63;;;;;;;10.74;100.00;95840.16;1027746;28;20106;-52
2021/08/26 00:38:07;;;;;;;13.63;8.10;;;;;;;10.79;100.00;95838.00;1023534;28;20034;-52
2021/08/26 00:38:38;;;;;;;14.10;8.90;;;;;;;10.80;100.00;95837.91;1024187;28;20021;-53
2021/08/26 00:39:08;;;;;;;13.00;8.15;;;;;;;10.82;100.00;95843.03;1030471;28;20021;-53
2021/08/26 00:39:39;;;;;;;13.48;8.63;;;;;;;10.80;100.00;95844.94;1031980;28;20010;-52
2021/08/26 00:40:11;;;;;;;13.07;8.02;;;;;;;10.75;100.00;95837.38;1027510;28;20015;-52
2021/08/26 00:40:42;;;;;;;13.35;8.30;;;;;;;10.72;100.00;95834.16;1028454;28;20098;-53
2021/08/26 00:41:15;;;;;;;14.18;9.15;;;;;;;10.72;100.00;95836.78;1036161;28;20145;-52
2021/08/26 00:41:46;;;;;;;13.35;9.07;;;;;;;10.75;100.00;95841.81;1036328;28;20089;-53
2021/08/26 00:42:16;;;;;;;12.88;7.95;;;;;;;10.76;100.00;95838.25;1031313;28;20290;-51
2021/08/26 00:42:48;;;;;;;12.55;8.23;;;;;;;10.72;100.00;95840.25;1027553;28;20071;-53
2021/08/26 00:43:19;;;;;;;14.00;8.82;;;;;;;10.72;100.00;95831.53;1027982;28;20507;-53
2021/08/26 00:43:49;;;;;;;13.40;8.55;;;;;;;10.68;100.00;95839.63;1031842;28;20264;-52
2021/08/26 00:44:21;;;;;;;11.98;8.30;;;;;;;10.67;100.00;95830.09;1031849;28;20063;-52
2021/08/26 00:44:52;;;;;;;11.88;8.55;;;;;;;10.68;100.00;95834.41;1027706;28;20031;-53
2021/08/26 00:45:22;;;;;;;11.63;7.95;;;;;;;10.69;100.00;95830.81;1027866;28;20123;-52
2021/08/26 00:45:53;;;;;;;11.05;8.30;;;;;;;10.67;100.00;95832.69;1027958;28;20109;-52
2021/08/26 00:46:24;;;;;;;15.25;8.43;;;;;;;10.66;100.00;95832.81;1023507;28;20051;-53
2021/08/26 00:46:55;;;;;;;14.55;8.30;;;;;;;10.67;100.00;95832.69;1023712;29;20456;-53
2021/08/26 00:47:25;;;;;;;11.00;8.73;;;;;;;10.65;100.00;95828.53;1027449;28;20055;-52
2021/08/26 00:47:56;;;;;;;11.43;8.32;;;;;;;10.63;100.00;95827.81;1031647;28;20056;-51
2021/08/26 00:48:27;;;;;;;10.60;7.57;;;;;;;10.60;100.00;95831.47;1031631;28;20014;-52
2021/08/26 00:48:57;;;;;;;12.20;7.55;;;;;;;10.66;100.00;95832.81;1031555;28;20022;-55
2021/08/26 00:49:30;;;;;;;11.38;8.55;;;;;;;10.64;100.00;95830.31;1027816;28;20046;-52
2021/08/26 00:50:01;;;;;;;12.23;8.55;;;;;;;10.61;100.00;95825.28;1024010;28;20027;-51
2021/08/26 00:50:31;;;;;;;13.02;8.57;;;;;;;10.64;100.00;95824.22;1028041;28;20341;-50
2021/08/26 00:51:02;;;;;;;11.45;7.78;;;;;;;10.65;100.00;95826.75;1027602;28;20087;-53
2021/08/26 00:51:33;;;;;;;10.75;7.85;;;;;;;10.63;100.00;95827.81;1031626;28;20026;-53
2021/08/26 00:52:04;;;;;;;15.10;8.82;;;;;;;10.59;100.00;95823.75;1031737;28;20018;-52
2021/08/26 00:52:36;;;;;;;15.68;8.48;;;;;;;10.60;100.00;95826.22;1035310;28;20781;-53
2021/08/26 00:53:07;;;;;;;12.20;8.10;;;;;;;10.62;100.00;95821.75;1035874;28;20069;-53
2021/08/26 00:53:39;;;;;;;13.25;8.45;;;;;;;10.67;100.00;95821.41;1036081;28;20438;-52
2021/08/26 00:54:11;;;;;;;12.18;7.97;;;;;;;10.61;100.00;95820.06;1040535;28;20067;-52
2021/08/26 00:54:42;;;;;;;14.35;8.25;;;;;;;10.62;100.00;95818.25;1043720;28;20413;-52
2021/08/26 00:55:13;;;;;;;13.52;8.20;;;;;;;10.64;100.00;95822.47;1044480;28;20075;-52
2021/08/26 00:55:44;;;;;;;11.55;8.35;;;;;;;10.64;100.00;95819.00;1043776;28;20204;-53
2021/08/26 00:56:15;;;;;;;13.23;7.88;;;;;;;10.61;100.00;95817.44;1035393;28;20292;-53
2021/08/26 00:56:46;;;;;;;15.23;8.13;;;;;;;10.61;100.00;95816.59;1027547;28;20026;-53
2021/08/26 00:57:16;;;;;;;12.65;8.30;;;;;;;10.57;100.00;95821.22;1031491;28;20266;-53
2021/08/26 00:57:47;;;;;;;10.65;7.50;;;;;;;10.56;100.00;95819.53;1031636;28;20014;-52
2021/08/26 00:58:18;;;;;;;13.20;8.48;;;;;;;10.56;100.00;95824.78;1039698;28;20067;-53
2021/08/26 00:58:49;;;;;;;10.85;8.18;;;;;;;10.61;100.00;95816.59;1031648;28;20487;-53
2021/08/26 00:59:20;;;;;;;10.80;7.50;;;;;;;10.62;100.00;95813.03;1027565;28;20042;-51
2021/08/26 00:59:54;;;;;;;13.05;7.88;;;;;;;10.61;100.00;95820.06;1027939;28;20023;-52
2021/08/26 01:00:24;;;;;;;11.85;8.20;;;;;;;10.61;100.00;95816.59;1032780;28;20023;-53
2021/08/26 01:00:58;;;;;;;11.50;7.68;;;;;;;10.61;100.00;95811.38;1032130;28;20297;-52
2021/08/26 01:01:39;;;;;;;12.35;8.00;;;;;;;10.61;100.00;95811.38;1035716;28;20025;-53
2021/08/26 01:02:33;;;;;;;11.25;8.15;;;;;;;10.55;100.00;95811.78;1033446;28;20301;-53
2021/08/26 01:03:12;;;;;;;12.40;8.00;;;;;;;10.53;100.00;95805.84;1043727;28;20398;-52
2021/08/26 01:03:49;;;;;;;12.60;8.30;;;;;;;10.52;100.00;95809.41;1035909;28;20331;-52
2021/08/26 01:04:43;;;;;;;11.32;7.85;;;;;;;10.52;100.00;95812.03;1035687;28;20403;-54
2021/08/26 01:05:24;;;;;;;10.98;8.07;;;;;;;10.47;100.00;95807.97;1031477;28;20306;-53
2021/08/26 01:05:56;;;;;;;11.57;7.97;;;;;;;10.49;100.00;95815.69;1040269;28;20279;-52
2021/08/26 01:06:32;;;;;;;12.93;7.90;;;;;;;10.47;100.00;95809.72;1043864;28;20358;-53
2021/08/26 01:07:06;;;;;;;12.02;7.93;;;;;;;10.54;100.00;95813.59;1042249;28;20322;-53
2021/08/26 01:07:43;;;;;;;13.75;9.35;;;;;;;10.55;100.00;95807.41;1043927;28;20338;-53
2021/08/26 01:08:16;;;;;;;12.60;7.68;;;;;;;10.54;100.00;95813.59;1039646;28;20275;-53
2021/08/26 01:08:51;;;;;;;13.30;8.38;;;;;;;10.52;100.00;95802.38;1041683;28;20257;-52
2021/08/26 01:09:21;;;;;;;11.68;7.60;;;;;;;10.57;100.00;95807.31;1031498;28;20765;-52
2021/08/26 01:10:08;;;;;;;13.15;8.30;;;;;;;10.49;100.00;95802.59;1028612;28;20262;-52
2021/08/26 01:10:38;;;;;;;11.40;8.02;;;;;;;10.48;100.00;95808.81;1031481;28;20057;-52
2021/08/26 01:11:09;;;;;;;12.18;7.32;;;;;;;10.50;100.00;95801.66;1033861;28;20265;-52
2021/08/26 01:11:42;;;;;;;14.93;8.50;;;;;;;10.46;100.00;95803.66;1031487;28;20397;-52
2021/08/26 01:12:14;;;;;;;10.93;8.18;;;;;;;10.44;100.00;95804.72;1031525;28;20081;-53
2021/08/26 01:12:47;;;;;;;12.63;7.88;;;;;;;10.46;100.00;95808.06;1027479;28;20276;-50
2021/08/26 01:13:17;;;;;;;12.77;8.75;;;;;;;10.45;100.00;95807.22;1031449;28;20032;-52
2021/08/26 01:13:48;;;;;;;12.40;8.18;;;;;;;10.44;100.00;95808.19;1032103;28;20558;-52
2021/08/26 01:14:18;;;;;;;11.40;7.82;;;;;;;10.47;100.00;95807.09;1031602;28;20025;-52
2021/08/26 01:14:50;;;;;;;11.45;7.88;;;;;;;10.46;100.00;95808.06;1031621;28;20031;-52
2021/08/26 01:15:21;;;;;;;10.43;7.95;;;;;;;10.43;100.00;95808.28;1019939;29;20602;-53
2021/08/26 01:16:09;;;;;;;12.60;8.35;;;;;;;10.46;100.00;95805.47;1023775;28;20286;-53
2021/08/26 01:16:39;;;;;;;12.50;8.60;;;;;;;10.50;100.00;95806.91;1019543;29;20397;-52
2021/08/26 01:17:20;;;;;;;10.77;7.80;;;;;;;10.46;100.00;95806.28;1026057;28;20047;-53
2021/08/26 01:17:50;;;;;;;12.45;8.23;;;;;;;10.45;100.00;95806.38;1031189;28;20068;-53
2021/08/26 01:18:21;;;;;;;11.50;7.82;;;;;;;10.45;100.00;95806.38;1033007;28;20029;-53
2021/08/26 01:18:51;;;;;;;11.63;7.90;;;;;;;10.45;100.00;95811.63;1031718;28;20049;-52
2021/08/26 01:19:22;;;;;;;12.13;8.25;;;;;;;10.48;100.00;95809.63;1031509;28;20686;-52
2021/08/26 01:19:53;;;;;;;13.57;8.38;;;;;;;10.50;100.00;95809.53;1027408;28;20098;-53
2021/08/26 01:20:24;;;;;;;11.77;7.50;;;;;;;10.52;100.00;95806.78;1027089;28;20026;-52
2021/08/26 01:20:54;;;;;;;12.25;7.75;;;;;;;10.52;100.00;95805.00;1027651;28;20044;-53
2021/08/26 01:21:25;;;;;;;10.98;7.00;;;;;;;10.52;100.00;95812.03;1027953;28;20047;-52
2021/08/26 01:21:56;;;;;;;13.73;8.70;;;;;;;10.48;100.00;95808.81;1031621;28;20049;-52
2021/08/26 01:22:27;;;;;;;14.00;8.27;;;;;;;10.48;100.00;95804.38;1027552;28;20479;-53
2021/08/26 01:22:58;;;;;;;13.63;8.38;;;;;;;10.46;100.00;95806.28;1027343;28;20057;-52
2021/08/26 01:23:31;;;;;;;11.90;7.97;;;;;;;10.44;100.00;95812.59;1031527;28;20784;-52
2021/08/26 01:24:03;;;;;;;11.60;8.23;;;;;;;10.38;100.00;95803.41;1035654;28;20453;-52
2021/08/26 01:24:34;;;;;;;10.73;7.88;;;;;;;10.43;100.00;95808.28;1031320;28;20109;-53
2021/08/26 01:25:08;;;;;;;10.18;7.20;;;;;;;10.45;100.00;95804.59;1023516;28;20698;-52
2021/08/26 01:25:42;;;;;;;12.10;7.75;;;;;;;10.44;100.00;95809.97;1023606;28;20034;-52
2021/08/26 01:26:16;;;;;;;11.43;8.00;;;;;;;10.46;100.00;95808.91;1019626;29;20632;-53
2021/08/26 01:26:50;;;;;;;12.20;8.32;;;;;;;10.47;100.00;95804.50;1015636;29;20287;-53
2021/08/26 01:27:20;;;;;;;13.45;7.95;;;;;;;10.52;100.00;95809.41;1019576;29;20302;-52
2021/08/26 01:28:02;;;;;;;10.55;7.78;;;;;;;10.52;100.00;95807.63;1027542;28;20721;-53
2021/08/26 01:28:36;;;;;;;12.63;8.15;;;;;;;10.49;100.00;95807.84;1027542;28;20014;-53
2021/08/26 01:29:06;;;;;;;12.65;7.28;;;;;;;10.50;100.00;95809.53;1029639;28;20266;-52
2021/08/26 01:29:38;;;;;;;10.10;7.32;;;;;;;10.49;100.00;95805.22;1017416;29;20657;-54
2021/08/26 01:30:12;;;;;;;12.82;7.68;;;;;;;10.49;100.00;95811.31;1016273;29;20040;-52
2021/08/26 01:30:43;;;;;;;11.20;7.97;;;;;;;10.50;100.00;95809.53;1023405;29;20350;-52
2021/08/26 01:31:13;;;;;;;13.07;7.72;;;;;;;10.50;100.00;95807.72;1027536;28;20030;-53
2021/08/26 01:31:44;;;;;;;12.98;8.05;;;;;;;10.49;100.00;95808.69;1023651;29;20366;-52
2021/08/26 01:32:19;;;;;;;11.75;7.97;;;;;;;10.50;100.00;95810.34;1023736;29;20698;-52
2021/08/26 01:32:51;;;;;;;11.35;7.97;;;;;;;10.50;100.00;95809.53;1020808;28;20051;-52
2021/08/26 01:33:21;;;;;;;12.13;8.35;;;;;;;10.55;100.00;95809.19;1028532;28;20274;-51
2021/08/26 01:33:53;;;;;;;13.82;8.05;;;;;;;10.51;100.00;95813.81;1027501;28;20764;-53
2021/08/26 01:34:24;;;;;;;10.60;7.63;;;;;;;10.50;100.00;95812.13;1027509;28;20033;-52
2021/08/26 01:34:54;;;;;;;10.60;7.82;;;;;;;10.52;100.00;95814.66;1019719;28;20790;-53
2021/08/26 01:35:25;;;;;;;12.57;8.70;;;;;;;10.51;100.00;95811.22;1027389;28;20054;-52
2021/08/26 01:35:55;;;;;;;12.00;8.48;;;;;;;10.52;100.00;95812.88;1027391;28;20062;-52
2021/08/26 01:36:28;;;;;;;9.38;7.22;;;;;;;10.54;100.00;95813.59;1027457;28;20050;-53
2021/08/26 01:36:58;;;;;;;11.35;8.18;;;;;;;10.58;100.00;95811.59;1027531;28;20026;-53
2021/08/26 01:37:29;;;;;;;10.85;7.40;;;;;;;10.56;100.00;95803.81;1023727;28;20309;-53
2021/08/26 01:38:00;;;;;;;11.43;8.32;;;;;;;10.54;100.00;95810.97;1020052;29;20054;-53
2021/08/26 01:38:30;;;;;;;12.30;8.25;;;;;;;10.59;100.00;95813.28;1031425;28;20022;-52
2021/08/26 01:39:05;;;;;;;12.05;7.90;;;;;;;10.58;100.00;95809.78;1031688;28;20018;-52
2021/08/26 01:39:44;;;;;;;12.40;7.85;;;;;;;10.61;100.00;95806.13;1032110;28;20026;-52
2021/08/26 01:40:15;;;;;;;11.38;8.02;;;;;;;10.64;100.00;95805.88;1033328;28;20261;-52
2021/08/26 01:40:47;;;;;;;11.18;7.40;;;;;;;10.63;100.00;95807.69;1027579;28;20030;-52
2021/08/26 01:41:19;;;;;;;11.38;8.18;;;;;;;10.62;100.00;95807.78;1025936;28;20034;-52
2021/08/26 01:41:51;;;;;;;11.73;8.57;;;;;;;10.63;100.00;95815.53;1035549;28;20320;-52
2021/08/26 01:42:23;;;;;;;13.80;8.43;;;;;;;10.64;100.00;95803.28;1027423;28;20258;-54
2021/08/26 01:42:54;;;;;;;10.52;7.18;;;;;;;10.67;100.00;95806.50;1023401;28;20027;-51
2021/08/26 01:43:26;;;;;;;12.88;8.48;;;;;;;10.72;100.00;95795.69;1024118;28;20532;-52
2021/08/26 01:43:57;;;;;;;11.02;7.20;;;;;;;10.80;100.00;95795.13;1021362;28;20118;-52
2021/08/26 01:44:28;;;;;;;9.98;7.60;;;;;;;10.83;100.00;95790.50;1027580;28;20015;-53
2021/08/26 01:44:59;;;;;;;12.23;7.22;;;;;;;10.81;100.00;95795.03;1027373;28;20106;-53
2021/08/26 01:45:29;;;;;;;10.50;7.85;;;;;;;10.78;100.00;95792.63;1027404;28;20305;-52
2021/08/26 01:46:00;;;;;;;12.07;7.93;;;;;;;10.72;100.00;95787.84;1027866;28;20015;-54
2021/08/26 01:46:31;;;;;;;10.98;7.65;;;;;;;10.75;100.00;95789.38;1027564;28;20015;-52
2021/08/26 01:47:07;;;;;;;11.52;7.97;;;;;;;10.72;100.00;95779.97;1027603;28;20023;-51
2021/08/26 01:47:38;;;;;;;16.02;7.97;;;;;;;10.77;100.00;95784.88;1031433;28;20049;-53
2021/08/26 01:48:11;;;;;;;11.90;7.80;;;;;;;10.78;100.00;95790.00;1035462;28;20343;-52
2021/08/26 01:48:45;;;;;;;11.88;7.88;;;;;;;10.81;100.00;95779.31;1027474;28;20866;-52
2021/08/26 01:49:16;;;;;;;11.23;7.57;;;;;;;10.79;100.00;95785.59;1023503;28;20341;-52
2021/08/26 01:49:47;;;;;;;15.27;7.38;;;;;;;10.80;100.00;95784.66;1035357;28;20257;-52
2021/08/26 01:50:18;;;;;;;13.10;7.53;;;;;;;10.83;100.00;95782.63;1032204;28;20034;-52
2021/08/26 01:50:49;;;;;;;12.88;7.57;;;;;;;10.79;100.00;95782.97;1027484;28;20305;-53
2021/08/26 01:51:19;;;;;;;11.48;7.88;;;;;;;10.78;100.00;95778.69;1023815;28;20107;-52
2021/08/26 01:51:50;;;;;;;11.25;7.47;;;;;;;10.77;100.00;95782.25;1027527;28;20635;-53
2021/08/26 01:52:22;;;;;;;11.55;7.68;;;;;;;10.74;100.00;95777.25;1035437;28;20483;-53
2021/08/26 01:52:53;;;;;;;10.10;7.28;;;;;;;10.74;100.00;95783.31;1027206;28;20073;-52
2021/08/26 01:53:23;;;;;;;13.75;8.00;;;;;;;10.76;100.00;95785.84;1019623;29;20267;-52
2021/08/26 01:53:55;;;;;;;10.93;7.55;;;;;;;10.79;100.00;95770.72;1019514;29;20119;-52
2021/08/26 01:54:26;;;;;;;10.88;7.55;;;;;;;10.85;100.00;95777.28;1020570;28;20019;-52
2021/08/26 01:54:58;;;;;;;11.13;8.10;;;;;;;10.85;100.00;95777.28;1035755;28;20261;-53
2021/08/26 01:55:29;;;;;;;10.90;7.30;;;;;;;10.87;100.00;95780.63;1039778;28;20018;-52
2021/08/26 01:55:59;;;;;;;12.85;7.85;;;;;;;10.89;100.00;95776.94;1035618;28;20265;-50
2021/08/26 01:56:30;;;;;;;10.45;7.22;;;;;;;10.95;100.00;95778.25;1031530;28;20026;-52
2021/08/26 01:57:00;;;;;;;12.60;7.22;;;;;;;11.01;100.00;95777.78;1031604;28;20026;-52
2021/08/26 01:57:32;;;;;;;10.25;7.45;;;;;;;10.99;100.00;95774.47;1031549;28;20104;-52
2021/08/26 01:58:02;;;;;;;14.73;8.20;;;;;;;11.01;100.00;95766.47;1031552;28;20460;-53
2021/08/26 01:58:33;;;;;;;9.50;7.28;;;;;;;11.01;100.00;95774.34;1035700;28;20084;-52
2021/08/26 01:59:04;;;;;;;10.50;7.10;;;;;;;11.00;100.00;95765.66;1031481;28;20061;-52
2021/08/26 01:59:34;;;;;;;13.05;7.53;;;;;;;11.02;100.00;95765.53;1019647;29;20020;-53
2021/08/26 02:00:07;;;;;;;11.60;7.18;;;;;;;11.00;100.00;95773.53;1015441;29;20265;-51
2021/08/26 02:00:38;;;;;;;9.98;7.03;;;;;;;10.96;100.00;95768.59;1023380;29;20050;-52
2021/08/26 02:01:09;;;;;;;9.85;7.25;;;;;;;10.95;100.00;95767.78;1023957;28;20015;-51
2021/08/26 02:01:39;;;;;;;11.57;7.63;;;;;;;10.93;100.00;95768.84;1023921;28;20043;-51
2021/08/26 02:02:10;;;;;;;10.82;7.93;;;;;;;10.94;100.00;95771.34;1027481;28;20492;-51
2021/08/26 02:02:41;;;;;;;10.05;7.25;;;;;;;10.92;100.00;95762.75;1023460;29;20023;-52
2021/08/26 02:03:11;;;;;;;20.75;7.75;;;;;;;10.94;100.00;95766.09;1027356;28;20053;-52
2021/08/26 02:03:42;;;;;;;11.50;7.45;;;;;;;10.93;100.00;95767.06;1027519;28;20023;-52
2021/08/26 02:04:12;;;;;;;10.40;7.60;;;;;;;10.92;100.00;95761.94;1023509;28;20497;-51
2021/08/26 02:04:43;;;;;;;13.27;7.78;;;;;;;10.98;100.00;95764.09;1027400;28;20027;-51
2021/08/26 02:05:13;;;;;;;10.43;7.25;;;;;;;11.08;100.00;95765.91;1027526;28;20037;-52
2021/08/26 02:05:44;;;;;;;10.25;6.88;;;;;;;11.13;100.00;95765.56;1027683;28;20022;-52
2021/08/26 02:06:15;;;;;;;11.20;7.55;;;;;;;11.12;100.00;95756.03;1023532;28;20022;-53
2021/08/26 02:06:45;;;;;;;9.80;7.28;;;;;;;11.13;100.00;95748.97;1031508;28;20041;-52
2021/08/26 02:07:16;;;;;;;11.52;7.72;;;;;;;11.10;100.00;95757.94;1027514;28;20019;-52
2021/08/26 02:07:47;;;;;;;10.80;6.72;;;;;;;11.08;100.00;95767.69;1023466;28;20023;-53
2021/08/26 02:08:18;;;;;;;11.75;7.20;;;;;;;11.04;100.00;95764.47;1023223;29;20053;-52
2021/08/26 02:08:48;;;;;;;12.50;7.22;;;;;;;11.08;100.00;95768.53;1023598;28;20512;-52
2021/08/26 02:09:19;;;;;;;10.60;7.32;;;;;;;11.13;100.00;95767.34;1031407;28;20048;-52
2021/08/26 02:09:49;;;;;;;10.77;7.20;;;;;;;11.13;100.00;95767.34;1031580;28;20486;-52
2021/08/26 02:10:20;;;;;;;9.55;7.28;;;;;;;11.13;100.00;95762.94;1023446;28;20098;-52
2021/08/26 02:10:51;;;;;;;13.10;6.57;;;;;;;11.15;100.00;95762.81;1023753;28;20035;-53
2021/08/26 02:11:21;;;;;;;11.10;6.85;;;;;;;11.18;100.00;95762.59;1035574;28;20106;-52
2021/08/26 02:11:52;;;;;;;11.30;7.15;;;;;;;11.19;100.00;95765.09;1035486;28;20018;-51
2021/08/26 02:12:23;;;;;;;11.82;7.10;;;;;;;11.22;100.00;95758.78;1031479;28;20093;-53
2021/08/26 02:12:53;;;;;;;11.60;6.60;;;;;;;11.20;100.00;95766.75;1019309;29;20067;-52
2021/08/26 02:13:24;;;;;;;11.02;7.43;;;;;;;11.19;100.00;95756.41;1031253;28;20053;-52
2021/08/26 02:13:54;;;;;;;9.75;7.32;;;;;;;11.17;100.00;95761.75;1039620;28;20031;-53
2021/08/26 02:14:25;;;;;;;13.57;7.70;;;;;;;11.15;100.00;95761.03;1031357;28;20038;-53
2021/08/26 02:14:56;;;;;;;10.68;7.00;;;;;;;11.16;100.00;95756.63;1031285;28;20068;-52
2021/08/26 02:15:26;;;;;;;11.52;6.97;;;;;;;11.15;100.00;95760.19;1031361;28;20022;-52
2021/08/26 02:15:57;;;;;;;10.93;7.20;;;;;;;11.14;100.00;95759.38;1031749;28;20026;-51
2021/08/26 02:16:27;;;;;;;10.60;6.90;;;;;;;11.18;100.00;95757.34;1035608;28;20032;-51
2021/08/26 02:16:58;;;;;;;11.13;7.07;;;;;;;11.22;100.00;95753.53;1031456;28;20084;-53
2021/08/26 02:17:29;;;;;;;14.40;7.55;;;;;;;11.26;100.00;95749.72;1031458;28;20027;-52
2021/08/26 02:17:59;;;;;;;11.35;7.25;;;;;;;11.26;100.00;95757.59;1031594;28;20049;-53
2021/08/26 02:18:30;;;;;;;9.82;7.10;;;;;;;11.23;100.00;95757.84;1035891;28;20073;-52
2021/08/26 02:19:00;;;;;;;12.82;8.02;;;;;;;11.27;100.00;95759.28;1035574;28;20030;-51
2021/08/26 02:19:31;;;;;;;13.52;7.38;;;;;;;11.30;100.00;95756.44;1035608;28;20028;-52
2021/08/26 02:20:04;;;;;;;11.02;7.35;;;;;;;11.26;100.00;95752.34;1027366;28;20023;-53
2021/08/26 02:20:35;;;;;;;9.85;6.68;;;;;;;11.24;100.00;95755.09;1028608;28;20023;-52
2021/08/26 02:21:06;;;;;;;10.52;7.10;;;;;;;11.26;100.00;95752.34;1031179;28;20050;-53
2021/08/26 02:21:36;;;;;;;9.93;6.38;;;;;;;11.24;100.00;95751.63;1036213;28;20471;-53
2021/08/26 02:22:07;;;;;;;10.02;6.82;;;;;;;11.24;100.00;95746.38;1040654;28;20525;-51
2021/08/26 02:22:38;;;;;;;9.95;6.57;;;;;;;11.29;100.00;95752.13;1040591;28;20437;-53
2021/08/26 02:23:08;;;;;;;10.57;6.85;;;;;;;11.29;100.00;95749.50;1044265;28;20027;-53
2021/08/26 02:23:39;;;;;;;12.18;7.05;;;;;;;11.33;100.00;95748.31;1036204;28;20080;-52
2021/08/26 02:24:10;;;;;;;11.73;7.25;;;;;;;11.33;100.00;95753.56;1036158;28;20132;-53
2021/08/26 02:24:40;;;;;;;12.73;7.90;;;;;;;11.31;100.00;95750.22;1036421;28;20044;-52
2021/08/26 02:25:12;;;;;;;14.32;7.97;;;;;;;11.32;100.00;95751.91;1036381;28;20041;-52
2021/08/26 02:25:42;;;;;;;9.77;6.68;;;;;;;11.38;100.00;95747.97;1036821;28;20064;-52
2021/08/26 02:26:13;;;;;;;11.55;7.25;;;;;;;11.40;100.00;95752.13;1036206;28;20506;-52
2021/08/26 02:26:43;;;;;;;9.73;6.40;;;;;;;11.42;100.00;95746.78;1032295;28;20038;-53
2021/08/26 02:27:14;;;;;;;11.13;7.47;;;;;;;11.43;100.00;95751.91;1032161;28;20022;-52
2021/08/26 02:27:45;;;;;;;11.63;7.13;;;;;;;11.42;100.00;95744.16;1032293;28;20113;-53
2021/08/26 02:28:16;;;;;;;10.77;6.65;;;;;;;11.39;100.00;95747.84;1032381;28;20022;-52
2021/08/26 02:28:46;;;;;;;10.85;6.55;;;;;;;11.41;100.00;95745.94;1032333;28;20069;-52
2021/08/26 02:29:17;;;;;;;11.18;7.15;;;;;;;11.42;100.00;95744.97;1028163;28;20169;-52
2021/08/26 02:29:47;;;;;;;11.68;7.20;;;;;;;11.45;100.00;95749.16;1028110;28;20031;-52
2021/08/26 02:30:18;;;;;;;12.48;6.65;;;;;;;11.47;100.00;95745.47;1028143;28;20015;-52
2021/08/26 02:30:48;;;;;;;11.63;7.10;;;;;;;11.47;100.00;95737.59;1040299;28;20127;-53
2021/08/26 02:31:19;;;;;;;10.45;7.25;;;;;;;11.50;100.00;95741.75;1044436;28;20044;-52
2021/08/26 02:31:50;;;;;;;9.45;6.72;;;;;;;11.47;100.00;95736.75;1028107;28;20426;-53
2021/08/26 02:32:20;;;;;;;10.65;7.22;;;;;;;11.43;100.00;95740.56;1028180;28;20027;-52
2021/08/26 02:32:51;;;;;;;9.73;6.63;;;;;;;11.48;100.00;95741.03;1035999;28;20117;-51
2021/08/26 02:33:21;;;;;;;10.77;7.18;;;;;;;11.48;100.00;95738.41;1031994;28;20021;-52